sensor_id;sensor_type;location;lat;lon;timestamp;P1;durP1;ratioP1;P2;durP2;ratioP2
45128;SDS011;35512;56.312;101.728;2022-12-18T00:00:24;1.10;;;1.00;;
45128;SDS011;35512;56.312;101.728;2022-12-18T00:02:53;1.10;;;1.00;;
45128;SDS011;35512;56.312;101.728;2022-12-18T00:05:23;1.10;;;1.00;;
45128;SDS011;35512;56.312;101.728;2022-12-18T00:07:52;1.20;;;1.00;;
45128;SDS011;35512;56.312;101.728;2022-12-18T00:10:21;1.10;;;1.00;;
45128;SDS011;35512;56.312;101.728;2022-12-18T00:12:50;1.10;;;1.00;;
45128;SDS011;35512;56.312;101.728;2022-12-18T00:15:19;1.00;;;0.90;;
45128;SDS011;35512;56.312;101.728;2022-12-18T00:17:48;1.10;;;1.00;;
45128;SDS011;35512;56.312;101.728;2022-12-18T00:20:17;1.02;;;0.93;;
45128;SDS011;35512;56.312;101.728;2022-12-18T00:22:52;1.10;;;1.00;;
45128;SDS011;35512;56.312;101.728;2022-12-18T00:25:21;1.00;;;0.90;;
45128;SDS011;35512;56.312;101.728;2022-12-18T00:27:50;1.05;;;0.95;;
45128;SDS011;35512;56.312;101.728;2022-12-18T00:30:19;1.00;;;0.90;;
45128;SDS011;35512;56.312;101.728;2022-12-18T00:32:48;1.02;;;0.93;;
45128;SDS011;35512;56.312;101.728;2022-12-18T00:35:17;1.10;;;1.00;;
45128;SDS011;35512;56.312;101.728;2022-12-18T00:37:48;1.00;;;0.90;;
45128;SDS011;35512;56.312;101.728;2022-12-18T00:40:16;1.00;;;0.90;;
45128;SDS011;35512;56.312;101.728;2022-12-18T00:42:45;1.10;;;1.00;;
45128;SDS011;35512;56.312;101.728;2022-12-18T00:45:27;1.08;;;0.90;;
45128;SDS011;35512;56.312;101.728;2022-12-18T00:47:58;1.05;;;0.95;;
45128;SDS011;35512;56.312;101.728;2022-12-18T00:50:27;1.10;;;1.00;;
45128;SDS011;35512;56.312;101.728;2022-12-18T00:52:56;1.10;;;1.00;;
45128;SDS011;35512;56.312;101.728;2022-12-18T00:55:25;1.10;;;1.00;;
45128;SDS011;35512;56.312;101.728;2022-12-18T00:57:54;1.20;;;1.00;;
45128;SDS011;35512;56.312;101.728;2022-12-18T01:00:23;1.10;;;1.00;;
45128;SDS011;35512;56.312;101.728;2022-12-18T01:02:53;1.10;;;0.90;;
45128;SDS011;35512;56.312;101.728;2022-12-18T01:05:22;1.10;;;1.00;;
45128;SDS011;35512;56.312;101.728;2022-12-18T01:07:51;1.10;;;1.00;;
45128;SDS011;35512;56.312;101.728;2022-12-18T01:10:20;1.10;;;1.00;;
45128;SDS011;35512;56.312;101.728;2022-12-18T01:12:49;1.10;;;1.00;;
45128;SDS011;35512;56.312;101.728;2022-12-18T01:15:19;1.10;;;1.00;;
45128;SDS011;35512;56.312;101.728;2022-12-18T01:17:49;1.20;;;1.00;;
45128;SDS011;35512;56.312;101.728;2022-12-18T01:20:21;1.10;;;1.00;;
45128;SDS011;35512;56.312;101.728;2022-12-18T01:22:50;1.10;;;1.00;;
45128;SDS011;35512;56.312;101.728;2022-12-18T01:25:19;1.10;;;1.00;;
45128;SDS011;35512;56.312;101.728;2022-12-18T01:27:50;1.10;;;1.00;;
45128;SDS011;35512;56.312;101.728;2022-12-18T01:30:19;1.10;;;1.00;;
45128;SDS011;35512;56.312;101.728;2022-12-18T01:32:48;1.10;;;1.00;;
45128;SDS011;35512;56.312;101.728;2022-12-18T01:35:17;1.10;;;1.00;;
45128;SDS011;35512;56.312;101.728;2022-12-18T01:37:46;1.05;;;0.95;;
45128;SDS011;35512;56.312;101.728;2022-12-18T01:40:15;1.10;;;1.00;;
45128;SDS011;35512;56.312;101.728;2022-12-18T01:42:44;1.10;;;1.00;;
45128;SDS011;35512;56.312;101.728;2022-12-18T01:50:35;1.10;;;1.00;;
45128;SDS011;35512;56.312;101.728;2022-12-18T01:53:10;1.10;;;1.00;;
45128;SDS011;35512;56.312;101.728;2022-12-18T01:55:45;1.20;;;1.00;;
45128;SDS011;35512;56.312;101.728;2022-12-18T01:58:17;1.10;;;1.00;;
45128;SDS011;35512;56.312;101.728;2022-12-18T02:00:48;1.10;;;1.00;;
45128;SDS011;35512;56.312;101.728;2022-12-18T02:03:19;1.10;;;1.00;;
45128;SDS011;35512;56.312;101.728;2022-12-18T02:05:54;1.08;;;0.98;;
45128;SDS011;35512;56.312;101.728;2022-12-18T02:11:05;1.00;;;0.90;;
45128;SDS011;35512;56.312;101.728;2022-12-18T02:17:16;1.00;;;0.90;;
45128;SDS011;35512;56.312;101.728;2022-12-18T02:19:58;1.10;;;1.00;;
45128;SDS011;35512;56.312;101.728;2022-12-18T02:28:54;1.00;;;0.90;;
45128;SDS011;35512;56.312;101.728;2022-12-18T02:31:31;1.00;;;0.90;;
45128;SDS011;35512;56.312;101.728;2022-12-18T02:34:07;1.00;;;0.90;;
45128;SDS011;35512;56.312;101.728;2022-12-18T02:36:38;1.00;;;0.90;;
45128;SDS011;35512;56.312;101.728;2022-12-18T02:39:11;0.80;;;0.80;;
45128;SDS011;35512;56.312;101.728;2022-12-18T02:41:52;0.80;;;0.80;;
45128;SDS011;35512;56.312;101.728;2022-12-18T02:44:24;0.80;;;0.80;;
45128;SDS011;35512;56.312;101.728;2022-12-18T02:46:53;0.80;;;0.80;;
45128;SDS011;35512;56.312;101.728;2022-12-18T02:55:13;0.80;;;0.80;;
45128;SDS011;35512;56.312;101.728;2022-12-18T02:58:16;0.80;;;0.80;;
45128;SDS011;35512;56.312;101.728;2022-12-18T03:01:03;0.80;;;0.80;;
45128;SDS011;35512;56.312;101.728;2022-12-18T03:03:56;0.80;;;0.80;;
45128;SDS011;35512;56.312;101.728;2022-12-18T03:06:35;0.80;;;0.80;;
45128;SDS011;35512;56.312;101.728;2022-12-18T03:09:10;0.70;;;0.70;;
45128;SDS011;35512;56.312;101.728;2022-12-18T03:11:48;0.80;;;0.80;;
45128;SDS011;35512;56.312;101.728;2022-12-18T03:14:43;0.80;;;0.80;;
45128;SDS011;35512;56.312;101.728;2022-12-18T03:17:17;0.80;;;0.80;;
45128;SDS011;35512;56.312;101.728;2022-12-18T03:19:51;0.80;;;0.80;;
45128;SDS011;35512;56.312;101.728;2022-12-18T03:22:23;0.80;;;0.80;;
45128;SDS011;35512;56.312;101.728;2022-12-18T03:24:54;0.80;;;0.80;;
45128;SDS011;35512;56.312;101.728;2022-12-18T03:27:25;0.80;;;0.80;;
45128;SDS011;35512;56.312;101.728;2022-12-18T03:30:06;0.80;;;0.80;;
45128;SDS011;35512;56.312;101.728;2022-12-18T03:33:00;0.80;;;0.80;;
45128;SDS011;35512;56.312;101.728;2022-12-18T03:35:48;0.80;;;0.80;;
45128;SDS011;35512;56.312;101.728;2022-12-18T03:38:18;0.80;;;0.80;;
45128;SDS011;35512;56.312;101.728;2022-12-18T03:46:19;0.80;;;0.80;;
45128;SDS011;35512;56.312;101.728;2022-12-18T03:49:23;0.80;;;0.80;;
45128;SDS011;35512;56.312;101.728;2022-12-18T03:52:01;0.80;;;0.80;;
45128;SDS011;35512;56.312;101.728;2022-12-18T03:54:52;0.80;;;0.80;;
45128;SDS011;35512;56.312;101.728;2022-12-18T03:57:26;0.80;;;0.80;;
45128;SDS011;35512;56.312;101.728;2022-12-18T04:00:16;0.75;;;0.75;;
45128;SDS011;35512;56.312;101.728;2022-12-18T04:03:04;0.90;;;0.90;;
45128;SDS011;35512;56.312;101.728;2022-12-18T04:05:40;0.80;;;0.80;;
45128;SDS011;35512;56.312;101.728;2022-12-18T04:08:13;0.80;;;0.80;;
45128;SDS011;35512;56.312;101.728;2022-12-18T04:10:51;0.82;;;0.82;;
45128;SDS011;35512;56.312;101.728;2022-12-18T04:13:38;0.80;;;0.80;;
45128;SDS011;35512;56.312;101.728;2022-12-18T04:16:15;0.80;;;0.80;;
45128;SDS011;35512;56.312;101.728;2022-12-18T04:18:46;0.80;;;0.80;;
45128;SDS011;35512;56.312;101.728;2022-12-18T04:21:15;0.80;;;0.80;;
45128;SDS011;35512;56.312;101.728;2022-12-18T04:23:46;0.80;;;0.80;;
45128;SDS011;35512;56.312;101.728;2022-12-18T04:26:17;0.80;;;0.80;;
45128;SDS011;35512;56.312;101.728;2022-12-18T04:29:10;0.80;;;0.80;;
45128;SDS011;35512;56.312;101.728;2022-12-18T04:31:40;0.80;;;0.80;;
45128;SDS011;35512;56.312;101.728;2022-12-18T04:34:09;0.80;;;0.80;;
45128;SDS011;35512;56.312;101.728;2022-12-18T04:36:44;0.80;;;0.80;;
45128;SDS011;35512;56.312;101.728;2022-12-18T04:39:14;0.80;;;0.80;;
45128;SDS011;35512;56.312;101.728;2022-12-18T04:41:43;0.80;;;0.80;;
45128;SDS011;35512;56.312;101.728;2022-12-18T04:44:13;0.80;;;0.80;;
45128;SDS011;35512;56.312;101.728;2022-12-18T04:46:43;0.80;;;0.80;;
45128;SDS011;35512;56.312;101.728;2022-12-18T04:49:12;0.80;;;0.80;;
45128;SDS011;35512;56.312;101.728;2022-12-18T04:51:41;0.80;;;0.80;;
45128;SDS011;35512;56.312;101.728;2022-12-18T04:54:10;0.80;;;0.80;;
45128;SDS011;35512;56.312;101.728;2022-12-18T04:56:39;0.70;;;0.70;;
45128;SDS011;35512;56.312;101.728;2022-12-18T04:59:07;0.80;;;0.80;;
45128;SDS011;35512;56.312;101.728;2022-12-18T05:01:37;0.80;;;0.80;;
45128;SDS011;35512;56.312;101.728;2022-12-18T05:04:06;0.80;;;0.80;;
45128;SDS011;35512;56.312;101.728;2022-12-18T05:06:35;0.80;;;0.80;;
45128;SDS011;35512;56.312;101.728;2022-12-18T05:09:04;0.80;;;0.80;;
45128;SDS011;35512;56.312;101.728;2022-12-18T05:11:33;0.80;;;0.80;;
45128;SDS011;35512;56.312;101.728;2022-12-18T05:14:04;0.80;;;0.80;;
45128;SDS011;35512;56.312;101.728;2022-12-18T05:16:33;0.80;;;0.80;;
45128;SDS011;35512;56.312;101.728;2022-12-18T05:19:02;0.80;;;0.80;;
45128;SDS011;35512;56.312;101.728;2022-12-18T05:21:31;0.80;;;0.80;;
45128;SDS011;35512;56.312;101.728;2022-12-18T05:24:00;0.80;;;0.80;;
45128;SDS011;35512;56.312;101.728;2022-12-18T05:26:29;0.80;;;0.80;;
45128;SDS011;35512;56.312;101.728;2022-12-18T05:28:58;0.80;;;0.80;;
45128;SDS011;35512;56.312;101.728;2022-12-18T05:31:27;0.80;;;0.80;;
45128;SDS011;35512;56.312;101.728;2022-12-18T05:34:02;0.80;;;0.80;;
45128;SDS011;35512;56.312;101.728;2022-12-18T05:36:31;0.88;;;0.88;;
45128;SDS011;35512;56.312;101.728;2022-12-18T05:39:00;0.80;;;0.80;;
45128;SDS011;35512;56.312;101.728;2022-12-18T05:41:30;0.80;;;0.80;;
45128;SDS011;35512;56.312;101.728;2022-12-18T05:43:59;0.80;;;0.80;;
45128;SDS011;35512;56.312;101.728;2022-12-18T05:46:28;0.80;;;0.80;;
45128;SDS011;35512;56.312;101.728;2022-12-18T05:49:00;0.80;;;0.80;;
45128;SDS011;35512;56.312;101.728;2022-12-18T05:51:29;0.80;;;0.80;;
45128;SDS011;35512;56.312;101.728;2022-12-18T05:53:59;0.80;;;0.80;;
45128;SDS011;35512;56.312;101.728;2022-12-18T05:56:28;0.80;;;0.80;;
45128;SDS011;35512;56.312;101.728;2022-12-18T05:58:57;0.80;;;0.80;;
45128;SDS011;35512;56.312;101.728;2022-12-18T06:01:26;0.80;;;0.80;;
45128;SDS011;35512;56.312;101.728;2022-12-18T06:03:57;0.80;;;0.80;;
45128;SDS011;35512;56.312;101.728;2022-12-18T06:06:27;0.80;;;0.80;;
45128;SDS011;35512;56.312;101.728;2022-12-18T06:08:56;0.70;;;0.70;;
45128;SDS011;35512;56.312;101.728;2022-12-18T06:11:26;0.80;;;0.80;;
45128;SDS011;35512;56.312;101.728;2022-12-18T06:13:56;0.80;;;0.80;;
45128;SDS011;35512;56.312;101.728;2022-12-18T06:16:27;0.80;;;0.80;;
45128;SDS011;35512;56.312;101.728;2022-12-18T06:19:00;0.80;;;0.80;;
45128;SDS011;35512;56.312;101.728;2022-12-18T06:21:32;0.80;;;0.80;;
45128;SDS011;35512;56.312;101.728;2022-12-18T06:24:02;0.80;;;0.80;;
45128;SDS011;35512;56.312;101.728;2022-12-18T06:26:31;0.80;;;0.80;;
45128;SDS011;35512;56.312;101.728;2022-12-18T06:29:00;0.80;;;0.80;;
45128;SDS011;35512;56.312;101.728;2022-12-18T06:31:29;0.80;;;0.80;;
45128;SDS011;35512;56.312;101.728;2022-12-18T06:33:58;0.80;;;0.80;;
45128;SDS011;35512;56.312;101.728;2022-12-18T06:36:28;0.80;;;0.80;;
45128;SDS011;35512;56.312;101.728;2022-12-18T06:38:56;0.80;;;0.80;;
45128;SDS011;35512;56.312;101.728;2022-12-18T06:41:25;0.80;;;0.80;;
45128;SDS011;35512;56.312;101.728;2022-12-18T06:43:54;0.80;;;0.80;;
45128;SDS011;35512;56.312;101.728;2022-12-18T06:46:26;0.80;;;0.80;;
45128;SDS011;35512;56.312;101.728;2022-12-18T06:48:55;0.80;;;0.80;;
45128;SDS011;35512;56.312;101.728;2022-12-18T06:51:25;0.80;;;0.80;;
45128;SDS011;35512;56.312;101.728;2022-12-18T06:53:54;0.80;;;0.80;;
45128;SDS011;35512;56.312;101.728;2022-12-18T06:56:23;0.80;;;0.80;;
45128;SDS011;35512;56.312;101.728;2022-12-18T06:58:52;0.80;;;0.80;;
45128;SDS011;35512;56.312;101.728;2022-12-18T07:01:21;0.80;;;0.80;;
45128;SDS011;35512;56.312;101.728;2022-12-18T07:03:52;0.80;;;0.80;;
45128;SDS011;35512;56.312;101.728;2022-12-18T07:06:23;0.80;;;0.80;;
45128;SDS011;35512;56.312;101.728;2022-12-18T07:08:53;0.80;;;0.80;;
45128;SDS011;35512;56.312;101.728;2022-12-18T07:11:23;0.80;;;0.80;;
45128;SDS011;35512;56.312;101.728;2022-12-18T07:13:52;0.80;;;0.80;;
45128;SDS011;35512;56.312;101.728;2022-12-18T07:16:22;0.80;;;0.80;;
45128;SDS011;35512;56.312;101.728;2022-12-18T07:18:54;0.80;;;0.80;;
45128;SDS011;35512;56.312;101.728;2022-12-18T07:21:23;0.80;;;0.80;;
45128;SDS011;35512;56.312;101.728;2022-12-18T07:23:53;0.80;;;0.80;;
45128;SDS011;35512;56.312;101.728;2022-12-18T07:26:22;0.70;;;0.70;;
45128;SDS011;35512;56.312;101.728;2022-12-18T07:28:54;0.80;;;0.80;;
45128;SDS011;35512;56.312;101.728;2022-12-18T07:31:25;0.80;;;0.80;;
45128;SDS011;35512;56.312;101.728;2022-12-18T07:33:55;0.80;;;0.80;;
45128;SDS011;35512;56.312;101.728;2022-12-18T07:36:24;0.80;;;0.80;;
45128;SDS011;35512;56.312;101.728;2022-12-18T07:38:53;0.80;;;0.80;;
45128;SDS011;35512;56.312;101.728;2022-12-18T07:41:22;0.80;;;0.80;;
45128;SDS011;35512;56.312;101.728;2022-12-18T07:43:51;0.80;;;0.80;;
45128;SDS011;35512;56.312;101.728;2022-12-18T07:46:20;0.80;;;0.80;;
45128;SDS011;35512;56.312;101.728;2022-12-18T07:48:49;0.80;;;0.80;;
45128;SDS011;35512;56.312;101.728;2022-12-18T07:51:18;0.80;;;0.80;;
45128;SDS011;35512;56.312;101.728;2022-12-18T07:53:47;0.80;;;0.80;;
45128;SDS011;35512;56.312;101.728;2022-12-18T07:56:19;0.80;;;0.80;;
45128;SDS011;35512;56.312;101.728;2022-12-18T07:58:58;0.80;;;0.80;;
45128;SDS011;35512;56.312;101.728;2022-12-18T08:01:29;0.80;;;0.80;;
45128;SDS011;35512;56.312;101.728;2022-12-18T08:03:59;0.80;;;0.80;;
45128;SDS011;35512;56.312;101.728;2022-12-18T08:06:28;0.80;;;0.80;;
45128;SDS011;35512;56.312;101.728;2022-12-18T08:08:56;0.90;;;0.90;;
45128;SDS011;35512;56.312;101.728;2022-12-18T08:11:26;0.80;;;0.80;;
45128;SDS011;35512;56.312;101.728;2022-12-18T08:13:56;0.80;;;0.80;;
45128;SDS011;35512;56.312;101.728;2022-12-18T08:16:26;0.80;;;0.80;;
45128;SDS011;35512;56.312;101.728;2022-12-18T08:18:55;0.80;;;0.80;;
45128;SDS011;35512;56.312;101.728;2022-12-18T08:21:25;0.80;;;0.80;;
45128;SDS011;35512;56.312;101.728;2022-12-18T08:23:56;0.80;;;0.80;;
45128;SDS011;35512;56.312;101.728;2022-12-18T08:26:28;0.80;;;0.80;;
45128;SDS011;35512;56.312;101.728;2022-12-18T08:28:59;0.80;;;0.80;;
45128;SDS011;35512;56.312;101.728;2022-12-18T08:31:29;0.80;;;0.80;;
45128;SDS011;35512;56.312;101.728;2022-12-18T08:33:59;0.80;;;0.80;;
45128;SDS011;35512;56.312;101.728;2022-12-18T08:36:28;0.80;;;0.80;;
45128;SDS011;35512;56.312;101.728;2022-12-18T08:38:57;0.80;;;0.80;;
45128;SDS011;35512;56.312;101.728;2022-12-18T08:41:26;0.90;;;0.90;;
45128;SDS011;35512;56.312;101.728;2022-12-18T08:43:55;0.80;;;0.80;;
45128;SDS011;35512;56.312;101.728;2022-12-18T08:46:43;0.80;;;0.80;;
45128;SDS011;35512;56.312;101.728;2022-12-18T08:49:12;0.80;;;0.80;;
45128;SDS011;35512;56.312;101.728;2022-12-18T08:51:41;0.80;;;0.80;;
45128;SDS011;35512;56.312;101.728;2022-12-18T08:54:11;0.80;;;0.80;;
45128;SDS011;35512;56.312;101.728;2022-12-18T08:56:41;0.80;;;0.80;;
45128;SDS011;35512;56.312;101.728;2022-12-18T08:59:10;0.90;;;0.90;;
45128;SDS011;35512;56.312;101.728;2022-12-18T09:01:46;1.00;;;0.90;;
45128;SDS011;35512;56.312;101.728;2022-12-18T09:04:17;0.80;;;0.80;;
45128;SDS011;35512;56.312;101.728;2022-12-18T09:06:46;0.90;;;0.90;;
45128;SDS011;35512;56.312;101.728;2022-12-18T09:09:15;0.90;;;0.90;;
45128;SDS011;35512;56.312;101.728;2022-12-18T09:11:44;0.90;;;0.90;;
45128;SDS011;35512;56.312;101.728;2022-12-18T09:14:13;0.90;;;0.90;;
45128;SDS011;35512;56.312;101.728;2022-12-18T09:16:42;0.90;;;0.90;;
45128;SDS011;35512;56.312;101.728;2022-12-18T09:19:11;0.80;;;0.80;;
45128;SDS011;35512;56.312;101.728;2022-12-18T09:21:40;0.90;;;0.90;;
45128;SDS011;35512;56.312;101.728;2022-12-18T09:24:15;1.00;;;0.90;;
45128;SDS011;35512;56.312;101.728;2022-12-18T09:26:44;1.00;;;0.90;;
45128;SDS011;35512;56.312;101.728;2022-12-18T09:29:14;1.00;;;0.90;;
45128;SDS011;35512;56.312;101.728;2022-12-18T09:31:45;1.00;;;0.90;;
45128;SDS011;35512;56.312;101.728;2022-12-18T09:34:15;0.90;;;0.90;;
45128;SDS011;35512;56.312;101.728;2022-12-18T09:36:44;0.80;;;0.80;;
45128;SDS011;35512;56.312;101.728;2022-12-18T09:39:13;0.90;;;0.90;;
45128;SDS011;35512;56.312;101.728;2022-12-18T09:41:50;1.00;;;0.90;;
45128;SDS011;35512;56.312;101.728;2022-12-18T09:49:45;1.00;;;0.90;;
45128;SDS011;35512;56.312;101.728;2022-12-18T09:58:18;1.00;;;0.90;;
45128;SDS011;35512;56.312;101.728;2022-12-18T10:01:14;1.00;;;0.90;;
45128;SDS011;35512;56.312;101.728;2022-12-18T10:03:49;1.00;;;0.90;;
45128;SDS011;35512;56.312;101.728;2022-12-18T10:14:24;1.00;;;0.90;;
45128;SDS011;35512;56.312;101.728;2022-12-18T10:17:07;0.90;;;0.90;;
45128;SDS011;35512;56.312;101.728;2022-12-18T10:19:56;1.00;;;0.90;;
45128;SDS011;35512;56.312;101.728;2022-12-18T10:25:35;1.00;;;0.90;;
45128;SDS011;35512;56.312;101.728;2022-12-18T10:28:30;1.00;;;0.90;;
45128;SDS011;35512;56.312;101.728;2022-12-18T10:31:01;1.00;;;0.90;;
45128;SDS011;35512;56.312;101.728;2022-12-18T10:33:31;1.00;;;0.90;;
45128;SDS011;35512;56.312;101.728;2022-12-18T10:36:01;0.85;;;0.85;;
45128;SDS011;35512;56.312;101.728;2022-12-18T10:38:31;1.00;;;0.90;;
45128;SDS011;35512;56.312;101.728;2022-12-18T10:41:05;1.00;;;0.90;;
45128;SDS011;35512;56.312;101.728;2022-12-18T10:46:50;1.20;;;1.00;;
45128;SDS011;35512;56.312;101.728;2022-12-18T10:49:27;1.00;;;0.90;;
45128;SDS011;35512;56.312;101.728;2022-12-18T10:52:14;1.00;;;0.90;;
45128;SDS011;35512;56.312;101.728;2022-12-18T10:54:51;1.10;;;1.00;;
45128;SDS011;35512;56.312;101.728;2022-12-18T10:57:37;1.00;;;0.90;;
45128;SDS011;35512;56.312;101.728;2022-12-18T11:00:26;1.00;;;0.90;;
45128;SDS011;35512;56.312;101.728;2022-12-18T11:02:57;0.98;;;0.90;;
45128;SDS011;35512;56.312;101.728;2022-12-18T11:05:28;1.00;;;0.90;;
45128;SDS011;35512;56.312;101.728;2022-12-18T11:07:58;1.00;;;0.90;;
45128;SDS011;35512;56.312;101.728;2022-12-18T11:10:28;1.08;;;0.90;;
45128;SDS011;35512;56.312;101.728;2022-12-18T11:13:11;1.00;;;0.90;;
45128;SDS011;35512;56.312;101.728;2022-12-18T11:15:46;1.08;;;0.98;;
45128;SDS011;35512;56.312;101.728;2022-12-18T11:18:22;1.00;;;0.90;;
45128;SDS011;35512;56.312;101.728;2022-12-18T11:21:17;1.00;;;0.90;;
45128;SDS011;35512;56.312;101.728;2022-12-18T11:23:51;1.00;;;0.90;;
45128;SDS011;35512;56.312;101.728;2022-12-18T11:26:21;0.95;;;0.90;;
45128;SDS011;35512;56.312;101.728;2022-12-18T11:29:10;1.00;;;0.90;;
45128;SDS011;35512;56.312;101.728;2022-12-18T11:31:46;1.00;;;0.90;;
45128;SDS011;35512;56.312;101.728;2022-12-18T11:34:36;1.00;;;0.90;;
45128;SDS011;35512;56.312;101.728;2022-12-18T11:37:04;1.00;;;0.90;;
45128;SDS011;35512;56.312;101.728;2022-12-18T11:39:35;0.80;;;0.80;;
45128;SDS011;35512;56.312;101.728;2022-12-18T11:42:13;1.00;;;0.90;;
45128;SDS011;35512;56.312;101.728;2022-12-18T11:50:49;0.90;;;0.90;;
45128;SDS011;35512;56.312;101.728;2022-12-18T11:53:20;0.95;;;0.85;;
45128;SDS011;35512;56.312;101.728;2022-12-18T11:58:47;0.90;;;0.90;;
45128;SDS011;35512;56.312;101.728;2022-12-18T12:32:59;0.80;;;0.80;;
45128;SDS011;35512;56.312;101.728;2022-12-18T12:41:05;0.80;;;0.80;;
45128;SDS011;35512;56.312;101.728;2022-12-18T12:43:58;0.80;;;0.80;;
45128;SDS011;35512;56.312;101.728;2022-12-18T12:46:32;0.85;;;0.85;;
45128;SDS011;35512;56.312;101.728;2022-12-18T12:49:11;0.80;;;0.80;;
45128;SDS011;35512;56.312;101.728;2022-12-18T12:51:47;0.80;;;0.80;;
45128;SDS011;35512;56.312;101.728;2022-12-18T12:54:24;0.80;;;0.80;;
45128;SDS011;35512;56.312;101.728;2022-12-18T12:57:00;0.82;;;0.82;;
45128;SDS011;35512;56.312;101.728;2022-12-18T12:59:39;0.80;;;0.80;;
45128;SDS011;35512;56.312;101.728;2022-12-18T13:02:35;0.80;;;0.80;;
45128;SDS011;35512;56.312;101.728;2022-12-18T13:05:44;0.80;;;0.80;;
45128;SDS011;35512;56.312;101.728;2022-12-18T13:08:26;0.80;;;0.80;;
45128;SDS011;35512;56.312;101.728;2022-12-18T13:11:01;0.90;;;0.90;;
45128;SDS011;35512;56.312;101.728;2022-12-18T13:13:53;0.80;;;0.80;;
45128;SDS011;35512;56.312;101.728;2022-12-18T13:16:24;0.80;;;0.80;;
45128;SDS011;35512;56.312;101.728;2022-12-18T13:18:58;0.80;;;0.80;;
45128;SDS011;35512;56.312;101.728;2022-12-18T13:21:28;0.80;;;0.80;;
45128;SDS011;35512;56.312;101.728;2022-12-18T13:24:15;0.80;;;0.80;;
45128;SDS011;35512;56.312;101.728;2022-12-18T13:26:56;0.80;;;0.80;;
45128;SDS011;35512;56.312;101.728;2022-12-18T13:29:44;0.80;;;0.80;;
45128;SDS011;35512;56.312;101.728;2022-12-18T13:32:22;0.90;;;0.90;;
45128;SDS011;35512;56.312;101.728;2022-12-18T13:38:20;0.90;;;0.90;;
45128;SDS011;35512;56.312;101.728;2022-12-18T13:43:28;0.80;;;0.80;;
45128;SDS011;35512;56.312;101.728;2022-12-18T13:46:42;0.80;;;0.80;;
45128;SDS011;35512;56.312;101.728;2022-12-18T13:49:20;0.80;;;0.80;;
45128;SDS011;35512;56.312;101.728;2022-12-18T13:51:54;0.80;;;0.80;;
45128;SDS011;35512;56.312;101.728;2022-12-18T13:56:56;0.88;;;0.88;;
45128;SDS011;35512;56.312;101.728;2022-12-18T13:59:25;0.80;;;0.80;;
45128;SDS011;35512;56.312;101.728;2022-12-18T14:02:16;0.80;;;0.80;;
45128;SDS011;35512;56.312;101.728;2022-12-18T14:04:49;0.80;;;0.80;;
45128;SDS011;35512;56.312;101.728;2022-12-18T14:07:23;0.80;;;0.80;;
45128;SDS011;35512;56.312;101.728;2022-12-18T14:10:00;0.80;;;0.80;;
45128;SDS011;35512;56.312;101.728;2022-12-18T14:12:51;0.80;;;0.80;;
45128;SDS011;35512;56.312;101.728;2022-12-18T14:20:52;0.80;;;0.80;;
45128;SDS011;35512;56.312;101.728;2022-12-18T14:23:37;0.80;;;0.80;;
45128;SDS011;35512;56.312;101.728;2022-12-18T14:28:50;0.80;;;0.80;;
45128;SDS011;35512;56.312;101.728;2022-12-18T14:31:23;0.80;;;0.80;;
45128;SDS011;35512;56.312;101.728;2022-12-18T14:33:54;0.80;;;0.80;;
45128;SDS011;35512;56.312;101.728;2022-12-18T14:36:24;0.80;;;0.80;;
45128;SDS011;35512;56.312;101.728;2022-12-18T14:38:58;0.80;;;0.80;;
45128;SDS011;35512;56.312;101.728;2022-12-18T14:41:27;0.80;;;0.80;;
45128;SDS011;35512;56.312;101.728;2022-12-18T14:44:04;0.80;;;0.80;;
45128;SDS011;35512;56.312;101.728;2022-12-18T14:46:35;0.80;;;0.80;;
45128;SDS011;35512;56.312;101.728;2022-12-18T14:51:48;0.80;;;0.80;;
45128;SDS011;35512;56.312;101.728;2022-12-18T14:54:25;0.80;;;0.80;;
45128;SDS011;35512;56.312;101.728;2022-12-18T14:59:30;0.80;;;0.80;;
45128;SDS011;35512;56.312;101.728;2022-12-18T15:02:44;0.80;;;0.80;;
45128;SDS011;35512;56.312;101.728;2022-12-18T15:05:00;0.80;;;0.80;;
45128;SDS011;35512;56.312;101.728;2022-12-18T15:07:43;0.80;;;0.80;;
45128;SDS011;35512;56.312;101.728;2022-12-18T15:10:21;0.80;;;0.80;;
45128;SDS011;35512;56.312;101.728;2022-12-18T15:26:04;0.80;;;0.80;;
45128;SDS011;35512;56.312;101.728;2022-12-18T15:28:37;0.80;;;0.80;;
45128;SDS011;35512;56.312;101.728;2022-12-18T15:33:42;0.80;;;0.80;;
45128;SDS011;35512;56.312;101.728;2022-12-18T15:36:15;0.80;;;0.80;;
45128;SDS011;35512;56.312;101.728;2022-12-18T15:38:54;0.80;;;0.80;;
45128;SDS011;35512;56.312;101.728;2022-12-18T15:41:33;0.80;;;0.80;;
45128;SDS011;35512;56.312;101.728;2022-12-18T15:44:15;0.80;;;0.80;;
45128;SDS011;35512;56.312;101.728;2022-12-18T15:46:50;0.80;;;0.80;;
45128;SDS011;35512;56.312;101.728;2022-12-18T15:49:20;0.80;;;0.80;;
45128;SDS011;35512;56.312;101.728;2022-12-18T15:51:53;0.80;;;0.80;;
45128;SDS011;35512;56.312;101.728;2022-12-18T15:54:24;0.90;;;0.90;;
45128;SDS011;35512;56.312;101.728;2022-12-18T15:57:12;0.80;;;0.80;;
45128;SDS011;35512;56.312;101.728;2022-12-18T15:59:54;0.80;;;0.80;;
45128;SDS011;35512;56.312;101.728;2022-12-18T16:02:26;0.80;;;0.80;;
45128;SDS011;35512;56.312;101.728;2022-12-18T16:04:57;0.80;;;0.80;;
45128;SDS011;35512;56.312;101.728;2022-12-18T16:07:26;0.80;;;0.80;;
45128;SDS011;35512;56.312;101.728;2022-12-18T16:09:57;0.80;;;0.80;;
45128;SDS011;35512;56.312;101.728;2022-12-18T16:12:29;0.80;;;0.80;;
45128;SDS011;35512;56.312;101.728;2022-12-18T16:14:58;0.80;;;0.80;;
45128;SDS011;35512;56.312;101.728;2022-12-18T16:17:27;0.80;;;0.80;;
45128;SDS011;35512;56.312;101.728;2022-12-18T16:19:56;0.80;;;0.80;;
45128;SDS011;35512;56.312;101.728;2022-12-18T16:22:25;0.80;;;0.80;;
45128;SDS011;35512;56.312;101.728;2022-12-18T16:24:56;0.80;;;0.80;;
45128;SDS011;35512;56.312;101.728;2022-12-18T16:27:25;0.80;;;0.80;;
45128;SDS011;35512;56.312;101.728;2022-12-18T16:29:54;0.80;;;0.80;;
45128;SDS011;35512;56.312;101.728;2022-12-18T16:32:23;0.80;;;0.80;;
45128;SDS011;35512;56.312;101.728;2022-12-18T16:34:52;0.80;;;0.80;;
45128;SDS011;35512;56.312;101.728;2022-12-18T16:37:21;0.80;;;0.80;;
45128;SDS011;35512;56.312;101.728;2022-12-18T16:39:50;0.80;;;0.80;;
45128;SDS011;35512;56.312;101.728;2022-12-18T16:42:19;0.80;;;0.80;;
45128;SDS011;35512;56.312;101.728;2022-12-18T16:44:48;0.80;;;0.80;;
45128;SDS011;35512;56.312;101.728;2022-12-18T16:47:17;0.80;;;0.80;;
45128;SDS011;35512;56.312;101.728;2022-12-18T16:49:47;0.80;;;0.80;;
45128;SDS011;35512;56.312;101.728;2022-12-18T16:52:21;0.80;;;0.80;;
45128;SDS011;35512;56.312;101.728;2022-12-18T16:54:50;0.80;;;0.80;;
45128;SDS011;35512;56.312;101.728;2022-12-18T16:57:19;0.80;;;0.80;;
45128;SDS011;35512;56.312;101.728;2022-12-18T16:59:52;0.80;;;0.80;;
45128;SDS011;35512;56.312;101.728;2022-12-18T17:02:25;0.80;;;0.80;;
45128;SDS011;35512;56.312;101.728;2022-12-18T17:04:55;0.80;;;0.80;;
45128;SDS011;35512;56.312;101.728;2022-12-18T17:07:25;0.80;;;0.80;;
45128;SDS011;35512;56.312;101.728;2022-12-18T17:09:55;0.80;;;0.80;;
45128;SDS011;35512;56.312;101.728;2022-12-18T17:12:24;0.80;;;0.80;;
45128;SDS011;35512;56.312;101.728;2022-12-18T17:14:54;0.80;;;0.80;;